M/T Vemaoil Xi — 9HWD7 — position and weather

sailwx.info

Track history (hours):
 
Tides and Currents Weather Stations Pressure Air Temp Water Temp Dewpoint Dewpoint Depression Visibility Wind Speed Wind Dir Waves Ship Positions

M/T Vemaoil Xi

Last reported at 2015-Mar-26 02:03 UTC. Time now 2015-Mar-29 03:07 UTC.
Position N 35°50' E 014°36'.

Length 105 m; draft 7 m.

Type: Tanker. MMSI: 215631000.

Date/timePositionNaut miles runAvg speedWind from/ knotsBaromVisibWave heightAir tempDewpointWater temp
2015-Mar-26 02:03N 35°50' E 014°36'0 0.0
2015-Mar-26 00:21N 35°50' E 014°36'0 0.0
2015-Mar-25 23:33N 35°50' E 014°36'0 0.0
2015-Mar-25 22:30N 35°50' E 014°36'0 0.0
2015-Mar-25 21:30N 35°50' E 014°36'0 0.0
2015-Mar-25 20:33N 35°50' E 014°36'4 1.9
2015-Mar-25 18:25N 35°54' E 014°34'9 0.2
2015-Mar-23 21:31N 35°53' E 014°45'5 5.5
2015-Mar-23 20:33N 35°55' E 014°39'6 6.4
2015-Mar-23 19:33N 35°57' E 014°32'6 5.9
2015-Mar-23 18:28N 35°59' E 014°24'1 0.0
2015-Mar-23 01:05N 35°59' E 014°25'1 0.1
2015-Mar-22 17:08N 35°59' E 014°24'5 1.4
2015-Mar-22 13:20N 35°57' E 014°30'5 6.2
2015-Mar-22 12:33N 35°54' E 014°35'  
Track history (hours):
 
Tides and Currents Weather Stations Pressure Air Temp Water Temp Dewpoint Dewpoint Depression Visibility Wind Speed Wind Dir Waves Ship Positions

M/T Vemaoil Xi

Last reported at 2015-Mar-26 02:03 UTC. Time now 2015-Mar-29 03:07 UTC.
Position N 35°50' E 014°36'.

Length 105 m; draft 7 m.

Type: Tanker. MMSI: 215631000.

Date/timePositionNaut miles runAvg speedWind from/ knotsBaromVisibWave heightAir tempDewpointWater temp
2015-Mar-26 02:03N 35°50' E 014°36'0 0.0
2015-Mar-26 00:21N 35°50' E 014°36'0 0.0
2015-Mar-25 23:33N 35°50' E 014°36'0 0.0
2015-Mar-25 22:30N 35°50' E 014°36'0 0.0
2015-Mar-25 21:30N 35°50' E 014°36'0 0.0
2015-Mar-25 20:33N 35°50' E 014°36'4 1.9
2015-Mar-25 18:25N 35°54' E 014°34'9 0.2
2015-Mar-23 21:31N 35°53' E 014°45'5 5.5
2015-Mar-23 20:33N 35°55' E 014°39'6 6.4
2015-Mar-23 19:33N 35°57' E 014°32'6 5.9
2015-Mar-23 18:28N 35°59' E 014°24'1 0.0
2015-Mar-23 01:05N 35°59' E 014°25'1 0.1
2015-Mar-22 17:08N 35°59' E 014°24'5 1.4
2015-Mar-22 13:20N 35°57' E 014°30'5 6.2
2015-Mar-22 12:33N 35°54' E 014°35'  

Dump ship's entire track history